Time;durP1;ratioP1;P1;durP2;ratioP2;P2;SDS_P1;SDS_P2;PMS_P1;PMS_P2;Temp;Humidity;BMP_temperature;BMP_pressure;BME280_temperature;BME280_humidity;BME280_pressure;Samples;Min_cycle;Max_cycle;Signal;HPM_P1;HPM_P2
2023/12/28 00:01:08;;;;;;;346.50;20.70;;;;;2.80;96426.00;;;;8255529;28;20209;-71
2023/12/28 00:05:12;;;;;;;24.43;10.70;;;;;2.80;96430.00;;;;8253076;28;20729;-72
2023/12/28 00:09:16;;;;;;;58.03;12.47;;;;;2.80;96431.00;;;;8257146;28;20209;-71
2023/12/28 00:13:19;;;;;;;29.43;10.80;;;;;2.80;96438.00;;;;8252925;28;20229;-71
2023/12/28 00:17:23;;;;;;;40.23;11.97;;;;;2.80;96418.00;;;;8258358;28;20305;-70
2023/12/28 00:21:26;;;;;;;179.23;15.70;;;;;2.80;96427.00;;;;8256365;28;20213;-72
2023/12/28 00:25:30;;;;;;;41.23;11.93;;;;;2.80;96431.00;;;;8258432;28;20674;-70
2023/12/28 00:29:34;;;;;;;279.43;16.80;;;;;2.80;96437.00;;;;8257978;28;20198;-70
2023/12/28 00:33:37;;;;;;;439.37;21.27;;;;;2.80;96432.00;;;;8254376;28;20953;-71
2023/12/28 00:37:40;;;;;;;262.50;15.13;;;;;2.70;96423.00;;;;8254669;28;20857;-72
2023/12/28 00:41:45;;;;;;;230.60;13.60;;;;;2.60;96421.00;;;;8257970;28;20194;-71
2023/12/28 00:45:48;;;;;;;165.43;11.80;;;;;2.60;96433.00;;;;8255769;28;20239;-71
2023/12/28 00:49:52;;;;;;;157.30;13.50;;;;;2.50;96423.00;;;;8257215;28;20203;-70
2023/12/28 00:53:55;;;;;;;113.10;11.67;;;;;2.40;96433.00;;;;8253907;28;20313;-70
2023/12/28 00:58:00;;;;;;;144.87;12.90;;;;;2.40;96435.00;;;;8258220;28;20892;-69
2023/12/28 01:02:03;;;;;;;112.47;12.23;;;;;2.30;96434.00;;;;8255305;28;20254;-68
2023/12/28 01:06:07;;;;;;;112.00;12.60;;;;;2.20;96439.00;;;;8256183;28;20576;-70
2023/12/28 01:10:10;;;;;;;203.50;16.40;;;;;2.20;96442.00;;;;8256088;28;20204;-72
2023/12/28 01:14:15;;;;;;;190.47;16.23;;;;;2.10;96447.00;;;;8248127;28;20320;-70
2023/12/28 01:18:18;;;;;;;139.03;13.43;;;;;2.10;96449.00;;;;8252908;28;20911;-71
2023/12/28 01:22:21;;;;;;;103.63;12.73;;;;;2.10;96449.00;;;;8251621;28;20200;-68
2023/12/28 01:26:24;;;;;;;100.37;11.23;;;;;2.10;96461.00;;;;8251333;28;20201;-71
2023/12/28 01:30:29;;;;;;;93.13;12.27;;;;;2.10;96464.00;;;;8252679;28;20286;-69
2023/12/28 01:34:32;;;;;;;210.77;15.03;;;;;2.00;96455.00;;;;8251811;28;20224;-70
2023/12/28 01:38:36;;;;;;;149.43;13.93;;;;;2.00;96461.00;;;;8255328;28;20207;-70
2023/12/28 01:42:39;;;;;;;137.60;13.60;;;;;1.90;96462.00;;;;8252645;28;20222;-71
2023/12/28 01:46:44;;;;;;;194.87;16.43;;;;;1.90;96453.00;;;;8253022;28;20240;-70
2023/12/28 01:50:47;;;;;;;156.40;15.67;;;;;1.80;96448.00;;;;8254896;28;20216;-70
2023/12/28 01:54:50;;;;;;;45.90;10.77;;;;;1.80;96438.00;;;;8252911;28;20266;-68
2023/12/28 01:58:54;;;;;;;152.33;16.10;;;;;1.70;96461.00;;;;8254940;28;20374;-70
2023/12/28 02:03:00;;;;;;;429.93;24.70;;;;;1.60;96460.00;;;;8251879;28;20260;-70
2023/12/28 02:07:03;;;;;;;269.33;19.67;;;;;1.60;96461.00;;;;8250112;28;20751;-74
2023/12/28 02:11:06;;;;;;;209.27;16.67;;;;;1.60;96473.00;;;;8250724;28;20215;-73
2023/12/28 02:15:10;;;;;;;75.60;13.10;;;;;1.60;96463.00;;;;8258647;28;20592;-72
2023/12/28 02:19:23;;;;;;;255.43;19.43;;;;;1.60;96454.00;;;;8259996;28;20213;-75
2023/12/28 02:23:26;;;;;;;147.90;14.30;;;;;1.50;96448.00;;;;8255979;28;20295;-74
2023/12/28 02:27:31;;;;;;;213.97;17.63;;;;;1.50;96440.00;;;;8258737;28;20622;-74
2023/12/28 02:31:44;;;;;;;132.80;15.70;;;;;1.30;96425.00;;;;8256980;28;20203;-73
2023/12/28 02:35:53;;;;;;;101.93;13.27;;;;;1.30;96428.00;;;;8256683;28;20270;-73
2023/12/28 02:39:56;;;;;;;61.57;11.37;;;;;1.30;96435.00;;;;8259914;28;20736;-76
2023/12/28 02:44:01;;;;;;;20.70;9.40;;;;;1.20;96442.00;;;;8257387;28;20224;-69
2023/12/28 02:48:05;;;;;;;23.20;10.10;;;;;1.20;96432.00;;;;8257224;28;20203;-73
2023/12/28 02:52:09;;;;;;;21.30;9.83;;;;;1.20;96437.00;;;;8257529;28;20756;-69
2023/12/28 02:56:12;;;;;;;20.13;9.47;;;;;1.20;96447.00;;;;8256352;28;20274;-72
2023/12/28 03:00:17;;;;;;;23.00;9.90;;;;;1.20;96438.00;;;;8255178;28;20282;-72
2023/12/28 03:04:20;;;;;;;17.67;9.53;;;;;1.30;96435.00;;;;8318997;23;20237;-74
2023/12/28 03:08:23;;;;;;;28.80;10.37;;;;;1.20;96437.00;;;;8300979;28;20199;-69
2023/12/28 03:12:27;;;;;;;87.23;13.27;;;;;1.20;96429.00;;;;8300376;28;20336;-72
2023/12/28 03:16:32;;;;;;;27.07;9.97;;;;;1.20;96416.00;;;;8297315;28;20225;-73
2023/12/28 03:20:37;;;;;;;316.40;18.93;;;;;1.20;96431.00;;;;8299160;28;20203;-73
2023/12/28 03:24:40;;;;;;;103.63;13.77;;;;;1.20;96427.00;;;;8299032;28;20204;-73
2023/12/28 03:28:44;;;;;;;35.77;11.10;;;;;1.20;96444.00;;;;8299366;28;20724;-73
2023/12/28 03:32:48;;;;;;;21.30;8.97;;;;;1.20;96425.00;;;;8300245;28;20303;-73
2023/12/28 03:36:51;;;;;;;29.73;11.03;;;;;1.10;96419.00;;;;8301348;28;20228;-72
2023/12/28 03:40:55;;;;;;;24.80;11.47;;;;;1.00;96426.00;;;;8300890;28;20749;-73
2023/12/28 03:44:58;;;;;;;19.23;9.77;;;;;1.10;96427.00;;;;8299114;28;22540;-73
2023/12/28 03:49:02;;;;;;;15.63;8.60;;;;;1.10;96430.00;;;;8298274;28;20658;-73
2023/12/28 03:53:06;;;;;;;19.23;8.80;;;;;1.20;96437.00;;;;8299588;28;20955;-72
2023/12/28 03:57:10;;;;;;;17.27;9.00;;;;;1.20;96434.00;;;;8300911;28;20332;-74
2023/12/28 04:01:13;;;;;;;16.27;9.00;;;;;1.30;96428.00;;;;8297766;28;20201;-72
2023/12/28 04:05:18;;;;;;;13.33;7.63;;;;;1.20;96426.00;;;;8297673;28;20760;-73
2023/12/28 04:09:21;;;;;;;16.97;8.87;;;;;1.20;96435.00;;;;8299353;28;20253;-75
2023/12/28 04:13:24;;;;;;;16.13;8.10;;;;;1.10;96424.00;;;;8299361;28;20212;-74
2023/12/28 04:17:27;;;;;;;15.67;7.63;;;;;1.10;96424.00;;;;8295070;28;20232;-73
2023/12/28 04:21:31;;;;;;;14.60;8.00;;;;;1.00;96436.00;;;;8299588;28;22409;-74
2023/12/28 04:25:35;;;;;;;12.53;7.03;;;;;1.00;96439.00;;;;8296834;28;20206;-77
2023/12/28 04:29:38;;;;;;;11.60;7.67;;;;;1.00;96441.00;;;;8296739;28;20211;-74
2023/12/28 04:33:42;;;;;;;11.17;7.23;;;;;1.00;96443.00;;;;8292945;28;21407;-75
2023/12/28 04:37:47;;;;;;;12.80;7.33;;;;;1.00;96439.00;;;;8298342;28;20231;-76
2023/12/28 04:41:50;;;;;;;11.13;6.53;;;;;0.90;96442.00;;;;8296476;28;20196;-76
2023/12/28 04:45:53;;;;;;;10.87;6.30;;;;;0.90;96449.00;;;;8294806;28;20272;-77
2023/12/28 04:49:57;;;;;;;13.27;6.77;;;;;0.90;96445.00;;;;8293853;28;20226;-76
2023/12/28 04:54:02;;;;;;;16.90;7.73;;;;;0.80;96452.00;;;;8297071;28;20221;-77
2023/12/28 04:58:05;;;;;;;14.53;7.63;;;;;0.80;96457.00;;;;8294324;28;20282;-77
2023/12/28 05:02:08;;;;;;;18.07;7.40;;;;;0.80;96442.00;;;;8296023;28;20220;-78
2023/12/28 05:06:12;;;;;;;13.47;7.60;;;;;0.90;96446.00;;;;8296353;28;20200;-79
2023/12/28 05:10:16;;;;;;;13.53;7.07;;;;;0.90;96448.00;;;;8297066;28;20207;-80
2023/12/28 05:14:19;;;;;;;12.53;7.00;;;;;0.90;96452.00;;;;8295863;28;20832;-81
2023/12/28 05:18:22;;;;;;;12.87;7.33;;;;;0.90;96446.00;;;;8298273;28;20825;-79
2023/12/28 05:22:26;;;;;;;15.57;7.20;;;;;0.90;96456.00;;;;8297320;28;20199;-78
2023/12/28 05:26:30;;;;;;;12.07;7.03;;;;;1.00;96450.00;;;;8296763;28;20216;-79
2023/12/28 05:30:34;;;;;;;12.37;6.43;;;;;1.10;96450.00;;;;8297117;28;20209;-78
2023/12/28 05:34:37;;;;;;;14.00;7.53;;;;;1.10;96441.00;;;;8298457;28;20198;-78
2023/12/28 05:38:40;;;;;;;11.87;6.63;;;;;1.20;96446.00;;;;8296340;28;20225;-77
2023/12/28 05:42:45;;;;;;;11.20;6.27;;;;;1.20;96451.00;;;;8294847;28;20235;-77
2023/12/28 05:46:48;;;;;;;10.50;6.20;;;;;1.30;96451.00;;;;8298210;28;20199;-77
2023/12/28 05:50:51;;;;;;;13.57;6.63;;;;;1.30;96463.00;;;;8301118;28;20208;-78
2023/12/28 05:54:56;;;;;;;12.53;5.87;;;;;1.40;96466.00;;;;8301302;28;20203;-73
2023/12/28 05:59:01;;;;;;;13.40;6.03;;;;;1.50;96448.00;;;;8301144;28;20231;-75
2023/12/28 06:03:04;;;;;;;11.87;6.50;;;;;1.60;96452.00;;;;8300638;28;20325;-73
2023/12/28 06:07:07;;;;;;;11.27;6.23;;;;;1.80;96447.00;;;;8301890;28;20230;-77
2023/12/28 06:11:11;;;;;;;10.60;6.33;;;;;2.00;96445.00;;;;8302541;28;20964;-72
2023/12/28 06:15:15;;;;;;;9.20;6.03;;;;;2.10;96452.00;;;;8301482;28;20204;-73
2023/12/28 06:19:19;;;;;;;10.03;5.57;;;;;2.30;96470.00;;;;8300936;28;20294;-76
2023/12/28 06:23:22;;;;;;;8.93;5.60;;;;;2.40;96473.00;;;;8292112;28;20640;-67
2023/12/28 06:27:25;;;;;;;9.77;6.20;;;;;2.50;96472.00;;;;8299304;28;20200;-67
2023/12/28 06:31:30;;;;;;;11.00;6.77;;;;;2.70;96469.00;;;;8297981;28;20208;-67
2023/12/28 06:35:33;;;;;;;8.00;5.53;;;;;2.70;96472.00;;;;8297495;28;20195;-67
2023/12/28 06:39:36;;;;;;;11.67;5.53;;;;;2.70;96483.00;;;;8299596;28;20211;-67
2023/12/28 06:43:39;;;;;;;15.90;7.30;;;;;2.70;96492.00;;;;8300878;28;20209;-67
2023/12/28 06:47:44;;;;;;;10.20;5.60;;;;;2.80;96498.00;;;;8271289;28;20236;-68
2023/12/28 06:51:47;;;;;;;27.10;16.43;;;;;2.80;96514.00;;;;8268052;28;20630;-72
2023/12/28 06:55:50;;;;;;;11.87;6.13;;;;;2.80;96521.00;;;;8265487;28;20240;-72
2023/12/28 06:59:54;;;;;;;7.80;5.03;;;;;3.00;96528.00;;;;8263328;28;20203;-72
2023/12/28 07:03:59;;;;;;;11.50;6.07;;;;;3.00;96521.00;;;;8267210;28;20237;-72
2023/12/28 07:08:02;;;;;;;13.40;6.63;;;;;3.10;96517.00;;;;8266387;28;20207;-71
2023/12/28 07:12:06;;;;;;;14.20;6.33;;;;;3.20;96519.00;;;;8268359;28;20199;-73
2023/12/28 07:16:10;;;;;;;10.53;6.40;;;;;3.30;96531.00;;;;8267120;28;20693;-74
2023/12/28 07:20:14;;;;;;;10.83;5.77;;;;;3.40;96519.00;;;;8265239;28;20297;-72
2023/12/28 07:24:18;;;;;;;10.17;6.13;;;;;3.50;96528.00;;;;8265085;28;20291;-75
2023/12/28 07:28:21;;;;;;;11.10;5.60;;;;;3.60;96537.00;;;;8266878;28;20239;-73
2023/12/28 07:32:25;;;;;;;13.03;5.90;;;;;3.70;96520.00;;;;8265344;28;20710;-76
2023/12/28 07:36:30;;;;;;;11.27;6.50;;;;;3.70;96529.00;;;;8263740;28;20347;-77
2023/12/28 07:40:33;;;;;;;12.23;6.97;;;;;3.70;96537.00;;;;8261490;28;20202;-76
2023/12/28 07:44:36;;;;;;;10.27;6.10;;;;;3.80;96546.00;;;;8265330;28;20200;-80
2023/12/28 07:48:40;;;;;;;11.20;6.10;;;;;3.80;96553.00;;;;8264960;28;20200;-81
2023/12/28 07:52:46;;;;;;;12.97;6.53;;;;;3.90;96549.00;;;;8265928;28;20239;-77
2023/12/28 07:56:49;;;;;;;11.80;6.50;;;;;4.00;96535.00;;;;8264345;28;20214;-78
2023/12/28 08:00:52;;;;;;;15.73;6.83;;;;;4.10;96522.00;;;;8266145;28;20236;-80
2023/12/28 08:04:56;;;;;;;11.17;6.60;;;;;4.20;96519.00;;;;8263962;28;20276;-78
2023/12/28 08:09:01;;;;;;;9.60;5.57;;;;;4.30;96523.00;;;;8264759;28;20638;-79
2023/12/28 08:13:04;;;;;;;9.83;6.57;;;;;4.50;96523.00;;;;8264881;28;20226;-79
2023/12/28 08:17:07;;;;;;;14.40;7.63;;;;;4.60;96531.00;;;;8262808;28;20233;-80
2023/12/28 08:21:11;;;;;;;13.67;6.73;;;;;4.70;96540.00;;;;8265191;28;20212;-80
2023/12/28 08:25:15;;;;;;;12.87;7.47;;;;;4.70;96538.00;;;;8266012;28;20209;-80
2023/12/28 08:29:18;;;;;;;12.30;6.30;;;;;4.80;96538.00;;;;8264101;28;20201;-80
2023/12/28 08:33:22;;;;;;;9.57;5.87;;;;;4.80;96536.00;;;;8265255;28;20209;-80
2023/12/28 08:37:25;;;;;;;9.90;6.47;;;;;4.80;96541.00;;;;8264150;28;20661;-79
2023/12/28 08:41:29;;;;;;;8.20;5.40;;;;;4.90;96549.00;;;;8263622;28;20272;-77
2023/12/28 08:45:34;;;;;;;10.43;6.13;;;;;5.00;96554.00;;;;8263463;28;20563;-78
2023/12/28 08:49:37;;;;;;;9.30;6.07;;;;;5.20;96556.00;;;;8263072;28;20240;-78
2023/12/28 08:53:40;;;;;;;11.83;6.13;;;;;5.30;96562.00;;;;8264442;28;20758;-77
2023/12/28 08:57:45;;;;;;;6.67;5.40;;;;;5.50;96554.00;;;;8263989;28;20252;-77
2023/12/28 09:01:48;;;;;;;9.73;5.60;;;;;5.70;96552.00;;;;8261721;28;20237;-79
2023/12/28 09:05:51;;;;;;;9.00;5.60;;;;;5.80;96546.00;;;;8264581;28;20587;-78
2023/12/28 09:09:55;;;;;;;10.20;5.50;;;;;5.90;96555.00;;;;8263746;28;20201;-77
2023/12/28 09:13:59;;;;;;;8.40;5.27;;;;;6.00;96560.00;;;;8260433;28;20721;-77
2023/12/28 09:18:02;;;;;;;8.83;5.60;;;;;6.00;96561.00;;;;8263982;28;20233;-77
2023/12/28 09:22:06;;;;;;;6.40;5.20;;;;;6.10;96573.00;;;;8265486;28;20202;-79
2023/12/28 09:26:09;;;;;;;10.03;5.47;;;;;6.10;96569.00;;;;8269958;28;20206;-79
2023/12/28 09:30:14;;;;;;;9.50;5.00;;;;;6.20;96557.00;;;;8268377;28;20198;-79
2023/12/28 09:34:18;;;;;;;39.33;20.17;;;;;6.30;96560.00;;;;8270578;28;20202;-80
2023/12/28 09:38:22;;;;;;;73.43;46.00;;;;;6.30;96556.00;;;;8269916;28;20226;-80
2023/12/28 09:42:29;;;;;;;103.77;71.80;;;;;6.40;96560.00;;;;8264343;28;20289;-78
2023/12/28 09:46:33;;;;;;;82.83;47.20;;;;;6.50;96551.00;;;;8269073;28;21051;-81
2023/12/28 09:50:37;;;;;;;172.90;104.77;;;;;6.60;96553.00;;;;8268711;28;20663;-78
2023/12/28 09:54:40;;;;;;;79.27;63.67;;;;;6.70;96568.00;;;;8268920;28;20289;-79
2023/12/28 09:58:45;;;;;;;79.53;56.77;;;;;6.80;96568.00;;;;8269518;28;20230;-80
2023/12/28 10:02:49;;;;;;;17.60;13.30;;;;;6.80;96557.00;;;;8269065;28;20595;-77
2023/12/28 10:06:53;;;;;;;55.00;40.60;;;;;6.80;96562.00;;;;8267756;28;21125;-81
2023/12/28 10:10:58;;;;;;;19.70;17.57;;;;;6.80;96555.00;;;;8267280;28;20194;-79
2023/12/28 10:15:02;;;;;;;23.07;19.67;;;;;6.90;96553.00;;;;8264979;28;20899;-81
2023/12/28 10:19:06;;;;;;;16.60;11.70;;;;;6.80;96547.00;;;;8268649;28;20711;-84
2023/12/28 10:23:12;;;;;;;16.97;14.97;;;;;6.80;96532.00;;;;8265526;28;20202;-81
2023/12/28 10:27:15;;;;;;;9.60;8.60;;;;;6.80;96526.00;;;;8266956;28;20216;-83
2023/12/28 10:31:18;;;;;;;14.33;11.67;;;;;6.90;96514.00;;;;8265481;28;20198;-82
2023/12/28 10:35:23;;;;;;;10.07;7.33;;;;;7.00;96510.00;;;;8267220;28;20218;-79
2023/12/28 10:39:28;;;;;;;7.77;6.80;;;;;7.20;96521.00;;;;8265410;28;20233;-81
2023/12/28 10:43:37;;;;;;;149.10;133.20;;;;;7.30;96510.00;;;;8268309;28;20205;-84
2023/12/28 10:47:44;;;;;;;23.63;21.30;;;;;7.40;96504.00;;;;8266226;28;20210;-82
2023/12/28 10:51:52;;;;;;;50.47;38.07;;;;;7.50;96492.00;;;;8262506;28;20194;-86
2023/12/28 10:56:11;;;;;;;20.30;13.70;;;;;7.60;96484.00;;;;8264647;28;20254;-80
2023/12/28 11:00:17;;;;;;;31.37;21.50;;;;;7.60;96483.00;;;;8264207;28;20703;-82
2023/12/28 11:04:27;;;;;;;6.90;4.17;;;;;7.70;96501.00;;;;8266318;28;20269;-80
2023/12/28 11:08:33;;;;;;;5.27;3.83;;;;;7.70;96487.00;;;;8268171;28;20635;-78
2023/12/28 11:12:38;;;;;;;5.13;3.50;;;;;7.70;96475.00;;;;8266365;28;20294;-82
2023/12/28 11:16:42;;;;;;;6.63;3.53;;;;;7.90;96473.00;;;;8266480;28;20244;-82
2023/12/28 11:20:46;;;;;;;6.60;3.37;;;;;8.10;96476.00;;;;8265236;28;20417;-80
2023/12/28 11:24:53;;;;;;;7.07;4.18;;;;;8.20;96470.00;;;;8266657;28;20198;-82
2023/12/28 11:29:02;;;;;;;8.50;3.73;;;;;8.30;96462.00;;;;8265646;28;20206;-78
2023/12/28 11:33:06;;;;;;;4.87;3.60;;;;;8.40;96463.00;;;;8265700;28;20191;-77
2023/12/28 11:37:14;;;;;;;5.32;3.50;;;;;8.40;96458.00;;;;8265700;28;20264;-77
2023/12/28 11:41:21;;;;;;;8.80;5.07;;;;;8.50;96463.00;;;;8264373;28;20286;-75
2023/12/28 11:45:25;;;;;;;6.67;4.03;;;;;8.50;96470.00;;;;8264414;28;20208;-76
2023/12/28 11:49:29;;;;;;;4.63;3.30;;;;;8.60;96475.00;;;;8265955;28;20198;-75
2023/12/28 11:53:33;;;;;;;7.47;3.63;;;;;8.60;96473.00;;;;8264875;28;20217;-75
2023/12/28 11:57:39;;;;;;;5.97;3.63;;;;;8.70;96461.00;;;;8266145;28;20233;-75
2023/12/28 12:01:42;;;;;;;5.53;3.63;;;;;8.80;96473.00;;;;8263332;28;20781;-74
2023/12/28 12:05:54;;;;;;;4.55;3.60;;;;;8.90;96468.00;;;;8357316;27;21140;-76
2023/12/28 12:09:58;;;;;;;5.20;3.30;;;;;9.00;96470.00;;;;8343854;28;20203;-79
2023/12/28 12:14:02;;;;;;;4.63;3.58;;;;;9.10;96488.00;;;;8344075;28;20570;-76
2023/12/28 12:18:06;;;;;;;5.93;3.67;;;;;9.10;96490.00;;;;8343614;28;20192;-75
2023/12/28 12:22:10;;;;;;;4.35;3.80;;;;;9.20;96484.00;;;;8343115;28;20201;-74
2023/12/28 12:26:14;;;;;;;5.27;4.70;;;;;9.30;96485.00;;;;8342958;28;20202;-73
2023/12/28 12:30:17;;;;;;;4.80;3.80;;;;;9.30;96464.00;;;;8342015;28;21039;-74
2023/12/28 12:34:21;;;;;;;6.78;4.45;;;;;9.40;96459.00;;;;8340823;28;20231;-73
2023/12/28 12:38:26;;;;;;;6.72;3.72;;;;;9.50;96466.00;;;;8340929;28;20231;-76
2023/12/28 12:42:30;;;;;;;8.60;4.30;;;;;9.60;96465.00;;;;8338530;28;20229;-73
2023/12/28 12:46:33;;;;;;;5.57;4.10;;;;;9.70;96454.00;;;;8339388;28;20208;-73
2023/12/28 12:50:37;;;;;;;5.82;3.95;;;;;9.70;96458.00;;;;8342108;28;20205;-74
2023/12/28 12:54:42;;;;;;;7.72;4.80;;;;;9.70;96464.00;;;;8339454;28;20192;-73
2023/12/28 12:58:46;;;;;;;7.28;3.97;;;;;9.70;96456.00;;;;8342608;28;20193;-72
2023/12/28 13:02:50;;;;;;;4.25;3.38;;;;;9.70;96447.00;;;;8338227;28;20229;-74
2023/12/28 13:06:54;;;;;;;7.10;4.07;;;;;9.70;96438.00;;;;8341201;28;20201;-72
2023/12/28 13:10:58;;;;;;;5.93;3.90;;;;;9.80;96439.00;;;;8339943;28;20424;-74
2023/12/28 13:15:01;;;;;;;5.22;3.70;;;;;9.80;96429.00;;;;8330251;28;20315;-75
2023/12/28 13:19:05;;;;;;;11.20;9.30;;;;;9.90;96420.00;;;;8317589;28;22116;-76
2023/12/28 13:23:08;;;;;;;54.70;41.67;;;;;9.90;96425.00;;;;8318242;28;20939;-78
2023/12/28 13:27:14;;;;;;;143.15;100.38;;;;;9.90;96431.00;;;;8316018;28;20713;-75
2023/12/28 13:31:18;;;;;;;150.38;87.13;;;;;10.00;96422.00;;;;8315742;28;20736;-76
2023/12/28 13:35:22;;;;;;;101.28;59.72;;;;;10.00;96418.00;;;;8313611;28;20259;-75
2023/12/28 13:39:28;;;;;;;13.18;8.00;;;;;10.00;96419.00;;;;8316628;28;20778;-76
2023/12/28 13:43:33;;;;;;;10.52;6.60;;;;;10.00;96420.00;;;;8313992;28;20615;-77
2023/12/28 13:47:36;;;;;;;107.95;69.13;;;;;9.90;96434.00;;;;8314109;28;20214;-76
2023/12/28 13:51:39;;;;;;;907.72;600.38;;;;;10.00;96437.00;;;;8315945;28;20196;-78
2023/12/28 13:55:42;;;;;;;231.82;171.75;;;;;10.00;96448.00;;;;8313279;28;20204;-74
2023/12/28 13:59:46;;;;;;;28.70;23.35;;;;;10.00;96435.00;;;;8315064;28;20197;-75
2023/12/28 14:03:51;;;;;;;12.38;8.82;;;;;10.00;96438.00;;;;8310657;28;20228;-74
2023/12/28 14:07:55;;;;;;;24.23;18.10;;;;;10.00;96425.00;;;;8312487;28;20210;-74
2023/12/28 14:11:58;;;;;;;20.48;18.33;;;;;10.00;96435.00;;;;8314951;28;20236;-75
2023/12/28 14:16:03;;;;;;;36.85;31.77;;;;;9.90;96433.00;;;;8310659;28;20680;-76
2023/12/28 14:20:09;;;;;;;6.30;4.75;;;;;9.90;96440.00;;;;8310905;28;20599;-75
2023/12/28 14:24:13;;;;;;;8.02;7.25;;;;;9.90;96445.00;;;;8311993;28;20256;-74
2023/12/28 14:28:17;;;;;;;16.77;8.18;;;;;9.80;96453.00;;;;8308195;28;20209;-77
2023/12/28 14:32:22;;;;;;;5.10;3.80;;;;;9.80;96442.00;;;;8311767;28;20229;-76
2023/12/28 14:36:31;;;;;;;10.10;6.82;;;;;9.70;96444.00;;;;8311354;28;20193;-76
2023/12/28 14:40:34;;;;;;;6.15;3.90;;;;;9.60;96444.00;;;;8310738;28;20209;-76
2023/12/28 14:44:37;;;;;;;9.25;4.70;;;;;9.60;96448.00;;;;8308744;28;20234;-76
2023/12/28 14:48:42;;;;;;;13.75;7.68;;;;;9.50;96458.00;;;;8310900;28;20203;-75
2023/12/28 14:52:46;;;;;;;14.15;8.07;;;;;9.40;96461.00;;;;8309039;28;20210;-77
2023/12/28 14:56:51;;;;;;;8.02;4.78;;;;;9.40;96465.00;;;;8311026;28;20364;-76
2023/12/28 15:00:57;;;;;;;6.68;4.32;;;;;9.30;96458.00;;;;8308997;28;20210;-77
2023/12/28 15:05:02;;;;;;;6.28;3.97;;;;;9.30;96466.00;;;;8310407;28;20331;-76
2023/12/28 15:09:06;;;;;;;6.90;4.43;;;;;9.30;96465.00;;;;8307937;28;20230;-79
2023/12/28 15:13:10;;;;;;;6.95;3.70;;;;;9.30;96465.00;;;;8309857;28;20570;-75
2023/12/28 15:17:13;;;;;;;6.57;4.13;;;;;9.30;96461.00;;;;8304914;28;21150;-78
2023/12/28 15:21:19;;;;;;;8.30;4.45;;;;;9.20;96461.00;;;;8306140;28;20201;-77
2023/12/28 15:25:22;;;;;;;7.80;5.10;;;;;9.20;96452.00;;;;8306062;28;20222;-78
2023/12/28 15:29:25;;;;;;;6.82;4.80;;;;;9.10;96456.00;;;;8309938;28;20212;-76
2023/12/28 15:33:28;;;;;;;6.93;4.63;;;;;9.10;96451.00;;;;8311091;28;20204;-74
2023/12/28 15:37:33;;;;;;;21.48;9.25;;;;;9.10;96459.00;;;;8311266;28;20292;-75
2023/12/28 15:41:36;;;;;;;9.50;4.90;;;;;9.10;96451.00;;;;8311535;28;20997;-76
2023/12/28 15:45:39;;;;;;;8.88;5.10;;;;;9.10;96457.00;;;;8311396;28;20230;-75
2023/12/28 15:49:43;;;;;;;12.60;6.65;;;;;9.10;96455.00;;;;8304242;28;20211;-79
2023/12/28 15:53:48;;;;;;;18.05;5.43;;;;;9.10;96449.00;;;;8308966;28;21057;-78
2023/12/28 15:57:51;;;;;;;6.93;4.72;;;;;9.10;96450.00;;;;8309859;28;20227;-75
2023/12/28 16:01:54;;;;;;;11.52;5.50;;;;;8.90;96451.00;;;;8305962;28;20933;-76
2023/12/28 16:05:58;;;;;;;10.13;5.15;;;;;8.70;96441.00;;;;8310986;28;20257;-77
2023/12/28 16:10:03;;;;;;;8.38;4.88;;;;;8.60;96428.00;;;;8308851;28;20218;-73
2023/12/28 16:14:06;;;;;;;9.55;5.07;;;;;8.50;96414.00;;;;8308308;28;20405;-75
2023/12/28 16:18:11;;;;;;;8.43;4.90;;;;;8.30;96388.00;;;;8306177;28;20200;-70
2023/12/28 16:22:15;;;;;;;7.00;4.65;;;;;8.10;96402.00;;;;8307223;28;20235;-71
2023/12/28 16:26:20;;;;;;;7.53;4.90;;;;;8.00;96399.00;;;;8308590;28;20232;-71
2023/12/28 16:30:23;;;;;;;8.00;5.45;;;;;7.80;96414.00;;;;8307714;28;20216;-71
2023/12/28 16:34:27;;;;;;;11.40;5.93;;;;;7.80;96423.00;;;;8309161;28;20203;-73
2023/12/28 16:38:30;;;;;;;9.60;6.25;;;;;7.80;96410.00;;;;8310345;28;20252;-70
2023/12/28 16:42:35;;;;;;;14.05;8.32;;;;;7.80;96395.00;;;;8306144;28;20202;-70
2023/12/28 16:46:45;;;;;;;12.63;6.97;;;;;7.70;96389.00;;;;8306483;28;20799;-73
2023/12/28 16:50:48;;;;;;;11.18;6.43;;;;;7.60;96394.00;;;;8310167;28;20282;-71
2023/12/28 16:54:52;;;;;;;12.80;6.70;;;;;7.60;96389.00;;;;8313787;28;20197;-74
2023/12/28 16:58:57;;;;;;;13.43;7.47;;;;;7.60;96396.00;;;;8311479;28;20616;-73
2023/12/28 17:03:00;;;;;;;13.88;7.32;;;;;7.50;96406.00;;;;8314936;28;20283;-75
2023/12/28 17:07:06;;;;;;;9.20;6.20;;;;;7.50;96414.00;;;;8313158;28;20236;-73
2023/12/28 17:11:12;;;;;;;9.20;7.00;;;;;7.40;96418.00;;;;8309825;28;20216;-76
2023/12/28 17:15:18;;;;;;;10.17;5.90;;;;;7.40;96408.00;;;;8311808;28;20198;-78
2023/12/28 17:19:22;;;;;;;11.27;5.22;;;;;7.40;96408.00;;;;8311347;28;20287;-76
2023/12/28 17:23:32;;;;;;;9.83;5.90;;;;;7.40;96398.00;;;;8307495;28;20267;-75
2023/12/28 17:27:39;;;;;;;8.10;5.40;;;;;7.40;96389.00;;;;8312939;28;20228;-77
2023/12/28 17:31:46;;;;;;;5.57;4.40;;;;;7.50;96388.00;;;;8312445;28;20252;-78
2023/12/28 17:35:50;;;;;;;7.95;5.50;;;;;7.50;96401.00;;;;8314958;28;20205;-76
2023/12/28 17:39:54;;;;;;;7.53;4.90;;;;;7.60;96405.00;;;;8316239;28;20279;-76
2023/12/28 17:44:00;;;;;;;7.82;5.50;;;;;7.60;96390.00;;;;8314109;28;20228;-75
2023/12/28 17:48:09;;;;;;;40.97;20.75;;;;;7.70;96391.00;;;;8316106;28;20206;-76
2023/12/28 17:52:17;;;;;;;12.33;6.90;;;;;7.80;96403.00;;;;8313965;28;20208;-76
2023/12/28 17:56:20;;;;;;;8.00;5.30;;;;;7.70;96412.00;;;;8315506;28;20290;-74
2023/12/28 18:00:24;;;;;;;10.45;5.28;;;;;7.70;96415.00;;;;8311763;28;20267;-77
2023/12/28 18:04:30;;;;;;;6.60;4.13;;;;;7.80;96416.00;;;;8316155;28;20676;-78
2023/12/28 18:08:33;;;;;;;17.17;9.73;;;;;7.80;96431.00;;;;8315003;28;20201;-76
2023/12/28 18:12:36;;;;;;;9.30;6.60;;;;;7.80;96434.00;;;;8316329;28;20902;-75
2023/12/28 18:16:40;;;;;;;11.00;5.50;;;;;7.90;96426.00;;;;8313051;28;20197;-74
2023/12/28 18:20:48;;;;;;;11.10;5.90;;;;;7.90;96437.00;;;;8316066;28;20293;-75
2023/12/28 18:24:51;;;;;;;8.48;5.30;;;;;7.90;96436.00;;;;8316776;28;20240;-76
2023/12/28 18:28:54;;;;;;;9.37;5.50;;;;;8.00;96435.00;;;;8316058;28;20200;-76
2023/12/28 18:32:57;;;;;;;8.77;5.27;;;;;7.90;96430.00;;;;8313192;28;21375;-75
2023/12/28 18:37:03;;;;;;;8.83;4.90;;;;;8.00;96425.00;;;;8317908;28;20204;-77
2023/12/28 18:41:06;;;;;;;6.27;4.20;;;;;8.00;96429.00;;;;8315806;28;21061;-78
2023/12/28 18:45:11;;;;;;;8.60;4.60;;;;;8.00;96426.00;;;;8314050;28;20310;-74
2023/12/28 18:49:14;;;;;;;12.43;5.95;;;;;8.00;96409.00;;;;8314642;28;20288;-75
2023/12/28 18:53:19;;;;;;;6.03;4.07;;;;;8.00;96407.00;;;;8315904;28;20638;-77
2023/12/28 18:57:23;;;;;;;7.50;4.37;;;;;8.00;96406.00;;;;8314541;28;20201;-75
2023/12/28 19:01:26;;;;;;;4.77;3.83;;;;;8.00;96409.00;;;;8313535;28;20201;-75
2023/12/28 19:05:30;;;;;;;4.75;4.05;;;;;8.00;96402.00;;;;8315121;28;20220;-76
2023/12/28 19:09:35;;;;;;;5.65;4.07;;;;;7.90;96406.00;;;;8314971;28;20335;-73
2023/12/28 19:13:38;;;;;;;7.70;4.47;;;;;7.80;96399.00;;;;8309777;28;20208;-77
2023/12/28 19:17:42;;;;;;;6.10;4.23;;;;;7.70;96392.00;;;;8310176;28;20255;-75
2023/12/28 19:21:45;;;;;;;7.68;4.45;;;;;7.70;96399.00;;;;8310524;28;20206;-75
2023/12/28 19:25:50;;;;;;;9.07;4.30;;;;;7.60;96386.00;;;;8309615;28;20318;-78
2023/12/28 19:29:56;;;;;;;8.43;5.07;;;;;7.50;96399.00;;;;8311174;28;20207;-75
2023/12/28 19:33:59;;;;;;;8.18;4.70;;;;;7.50;96399.00;;;;8311567;28;20228;-76
2023/12/28 19:38:02;;;;;;;6.03;4.43;;;;;7.40;96400.00;;;;8311112;28;20331;-76
2023/12/28 19:42:08;;;;;;;7.57;3.55;;;;;7.40;96401.00;;;;8311373;28;20197;-74
2023/12/28 19:46:11;;;;;;;7.75;3.72;;;;;7.40;96397.00;;;;8310519;28;20235;-76
2023/12/28 19:50:14;;;;;;;5.00;3.40;;;;;7.40;96393.00;;;;8305336;28;20197;-73
2023/12/28 19:54:18;;;;;;;4.10;3.70;;;;;7.40;96393.00;;;;8312889;28;20196;-74
2023/12/28 19:58:22;;;;;;;5.50;3.87;;;;;7.40;96390.00;;;;8311636;28;20204;-76
2023/12/28 20:02:31;;;;;;;5.03;3.75;;;;;7.50;96387.00;;;;8312744;28;20312;-74
2023/12/28 20:06:34;;;;;;;8.23;4.50;;;;;7.50;96384.00;;;;8312143;28;20233;-74
2023/12/28 20:10:37;;;;;;;4.65;3.47;;;;;7.60;96388.00;;;;8312581;28;20200;-73
2023/12/28 20:14:43;;;;;;;9.23;3.93;;;;;7.60;96396.00;;;;8310219;28;20559;-73
2023/12/28 20:18:46;;;;;;;6.53;3.60;;;;;7.70;96397.00;;;;8310024;28;20704;-75